Hoffman, MN (56339)

8:19 AM CST on February 23, 2017 (GMT -0600)
Hoffman MN | | Change Station

Elev 1240 ft 45.83 °N, 95.78 °W | Updated 1 minute ago

Clear
Clear
27.1 °F
Feels Like 18 °F
N
9.2
Wind Variable Wind from North
Gusts 12.1 mph

Today
High -- | Low -- °F
--% Chance of Precip.
Yesterday
High -- | Low -- °F
Precip. -- in
Pressure 29.97 in
Visibility 10.0 miles
Clouds Clear
Windchill 18 °F
Dew Point 19.7 °F
Humidity 73%
Rainfall 0.00 in
Snow Depth Not available.
7:11 AM 6:01 PM
Waning Crescent, 10% visible
METAR KY63 231358Z AUTO 03009G15KT 010V070 10SM CLR M03/M06 A2997 RMK AO2 T10301056
Pressure 29.97 in
Visibility 10.0 miles
Clouds Clear
Windchill 18 °F
Dew Point 19.7 °F
Humidity 73%
Rainfall 0.00 in
Snow Depth Not available.
7:11 AM 6:01 PM
Waning Crescent, 10% visible
METAR KY63 231358Z AUTO 03009G15KT 010V070 10SM CLR M03/M06 A2997 RMK AO2 T10301056

Get Your Daily Forecast Email!

Thanks for signing up!

Be on the lookout for a verification email in your inbox.

You'll start receiving the daily forecast at 8 AM.

×

10-Day Weather Forecast

Almanac

Astronomy

Feb. 23, 2017 Rise Set
Actual Time
Civil Twilight
Nautical Twilight
Astronomical Twilight
Moon
Length of Visible Light
Length of Day
Tomorrow will be .
, % of the Moon is Illuminated

Today's Extremes

State Highs State Lows

Community

WunderPhotos

Upload Photos

1,962,540 photos uploaded!

WunderBlog® & News

Nearby

Air Quality

  Air Quality AQ Index Pollutant
Not available.

Snow Depth

Station Depth Elevation

Earthquake Activity

City Distance Mag. Time & Date
Minimum magnitude displayed is 2.5.

Coastal Water Temperatures

Place Temperature

Stations

Nearby Weather Stations

Station Location Temp. Windchill Dew Point Humidity Wind Precip. Elev Updated Type
                   

Watches & Warnings

There are currently no watches in effect.